createdAt,value
2018-12-17T00:00:34.155Z,32.13
2018-12-17T00:03:05.116Z,28.77
2018-12-17T00:05:41.775Z,32.78
2018-12-17T00:08:08.473Z,35.63
2018-12-17T00:10:37.217Z,31.10
2018-12-17T00:13:05.918Z,30.35
2018-12-17T00:15:36.367Z,37.05
2018-12-17T00:18:05.169Z,38.38
2018-12-17T00:20:34.099Z,33.50
2018-12-17T00:23:02.913Z,35.20
2018-12-17T00:25:33.590Z,32.83
2018-12-17T00:28:08.131Z,31.48
2018-12-17T00:30:33.553Z,22.50
2018-12-17T00:33:05.872Z,30.37
2018-12-17T00:35:34.570Z,26.57
2018-12-17T00:38:03.767Z,30.00
2018-12-17T00:40:32.569Z,24.63
2018-12-17T00:43:02.943Z,34.18
2018-12-17T00:45:32.705Z,32.35
2018-12-17T00:48:02.082Z,30.47
2018-12-17T00:50:30.986Z,31.87
2018-12-17T00:52:59.762Z,30.43
2018-12-17T00:55:29.102Z,32.03
2018-12-17T00:57:57.797Z,29.73
2018-12-17T01:00:26.571Z,34.63
2018-12-17T01:02:55.419Z,34.27
2018-12-17T01:05:24.232Z,39.30
2018-12-17T01:07:53.070Z,24.50
2018-12-17T01:10:21.884Z,35.05
2018-12-17T01:12:50.630Z,35.97
2018-12-17T01:15:19.710Z,29.70
2018-12-17T01:17:48.541Z,30.95
2018-12-17T01:20:17.289Z,31.90
2018-12-17T01:22:46.071Z,33.60
2018-12-17T01:25:14.791Z,30.80
2018-12-17T01:27:43.830Z,28.30
2018-12-17T01:30:12.613Z,35.60
2018-12-17T01:32:41.690Z,41.47
2018-12-17T01:35:10.398Z,30.20
2018-12-17T01:37:39.193Z,34.58
2018-12-17T01:42:47.002Z,34.30
2018-12-17T01:45:15.682Z,32.17
2018-12-17T01:50:23.507Z,27.23
2018-12-17T01:52:52.187Z,30.88
2018-12-17T01:55:21.347Z,34.40
2018-12-17T01:57:50.071Z,30.08
2018-12-17T02:00:19.024Z,34.38
2018-12-17T02:02:47.747Z,27.23
2018-12-17T02:05:16.513Z,31.80
2018-12-17T02:07:45.185Z,36.35
2018-12-17T02:10:13.973Z,27.43
2018-12-17T02:12:42.992Z,34.23
2018-12-17T02:15:11.791Z,37.83
2018-12-17T02:17:40.586Z,35.40
2018-12-17T02:22:52.694Z,33.63
2018-12-17T02:25:21.468Z,30.10
2018-12-17T02:27:50.142Z,32.23
2018-12-17T02:30:18.969Z,45.60
2018-12-17T02:32:47.905Z,26.37
2018-12-17T02:35:16.642Z,32.47
2018-12-17T02:37:45.342Z,27.40
2018-12-17T02:40:14.158Z,31.80
2018-12-17T02:42:42.947Z,39.57
2018-12-17T02:45:11.789Z,38.53
2018-12-17T02:47:40.501Z,31.65
2018-12-17T02:50:09.337Z,33.63
2018-12-17T02:52:38.132Z,37.43
2018-12-17T02:55:06.970Z,29.05
2018-12-17T02:57:35.677Z,42.10
2018-12-17T03:00:11.098Z,32.28
2018-12-17T03:02:41.839Z,36.23
2018-12-17T03:05:10.634Z,31.73
2018-12-17T03:07:39.430Z,32.28
2018-12-17T03:12:49.807Z,32.73
2018-12-17T03:15:23.905Z,40.75
2018-12-17T03:18:02.699Z,31.60
2018-12-17T03:20:35.004Z,44.30
2018-12-17T03:23:12.301Z,33.35
2018-12-17T03:25:44.647Z,24.40
2018-12-17T03:28:22.021Z,36.53
2018-12-17T03:30:58.627Z,33.45
2018-12-17T03:33:41.728Z,36.93
2018-12-17T03:39:06.561Z,39.50
2018-12-17T03:41:36.837Z,33.93
2018-12-17T03:44:05.656Z,40.13
2018-12-17T03:46:34.401Z,32.73
2018-12-17T03:49:03.706Z,31.75
2018-12-17T03:54:12.335Z,27.90
2018-12-17T03:59:21.031Z,26.03
2018-12-17T04:01:49.782Z,25.37
2018-12-17T04:04:18.534Z,33.43
2018-12-17T04:06:47.275Z,36.73
2018-12-17T04:09:16.019Z,30.40
2018-12-17T04:11:44.793Z,30.27
2018-12-17T04:14:13.561Z,29.77
2018-12-17T04:16:42.347Z,27.10
2018-12-17T04:19:11.110Z,29.13
2018-12-17T04:21:39.802Z,24.95
2018-12-17T04:26:48.443Z,24.07
2018-12-17T04:31:59.701Z,22.00
2018-12-17T04:34:28.495Z,22.67
2018-12-17T04:36:57.266Z,20.53
2018-12-17T04:39:26.324Z,24.60
2018-12-17T04:41:55.160Z,25.20
2018-12-17T04:44:23.932Z,29.13
2018-12-17T04:46:52.742Z,30.00
2018-12-17T04:49:21.465Z,22.03
2018-12-17T04:51:50.432Z,30.83
2018-12-17T04:54:19.116Z,25.70
2018-12-17T04:56:47.987Z,28.42
2018-12-17T04:59:16.725Z,22.93
2018-12-17T05:01:45.505Z,23.65
2018-12-17T05:04:14.456Z,19.40
2018-12-17T05:06:43.262Z,29.50
2018-12-17T05:09:12.026Z,26.67
2018-12-17T05:11:40.826Z,30.77
2018-12-17T05:14:09.556Z,24.35
2018-12-17T05:16:38.416Z,30.90
2018-12-17T05:19:07.247Z,26.70
2018-12-17T05:21:37.041Z,26.70
2018-12-17T05:24:05.851Z,18.23
2018-12-17T05:26:34.761Z,24.40
2018-12-17T05:29:03.889Z,19.87
2018-12-17T05:31:32.723Z,22.50
2018-12-17T05:34:01.982Z,22.95
2018-12-17T05:36:30.830Z,19.57
2018-12-17T05:41:39.355Z,30.23
2018-12-17T05:44:08.040Z,23.30
2018-12-17T05:46:37.857Z,19.63
2018-12-17T05:49:06.604Z,25.07
2018-12-17T05:51:35.463Z,24.53
2018-12-17T05:54:04.225Z,28.12
2018-12-17T05:56:32.999Z,19.17
2018-12-17T05:59:01.703Z,22.73
2018-12-17T06:04:05.735Z,20.80
2018-12-17T06:06:34.410Z,25.30
2018-12-17T06:09:07.463Z,23.23
2018-12-17T06:11:37.505Z,28.75
2018-12-17T06:14:07.400Z,22.83
2018-12-17T06:16:36.235Z,34.45
2018-12-17T06:19:05.028Z,20.50
2018-12-17T06:21:33.801Z,20.15
2018-12-17T06:26:46.898Z,29.33
2018-12-17T06:29:15.685Z,22.77
2018-12-17T06:31:44.450Z,28.02
2018-12-17T06:34:13.257Z,19.27
2018-12-17T06:36:42.010Z,28.50
2018-12-17T06:39:10.761Z,28.20
2018-12-17T06:41:39.488Z,16.87
2018-12-17T06:44:08.201Z,27.52
2018-12-17T06:46:36.953Z,23.98
2018-12-17T06:49:05.635Z,28.63
2018-12-17T06:51:34.635Z,20.95
2018-12-17T06:54:03.764Z,27.40
2018-12-17T06:56:32.834Z,30.32
2018-12-17T06:59:01.653Z,23.70
2018-12-17T07:01:30.326Z,22.70
2018-12-17T07:03:59.076Z,13.80
2018-12-17T07:09:07.909Z,20.50
2018-12-17T07:11:37.629Z,25.57
2018-12-17T07:14:06.378Z,18.27
2018-12-17T07:16:35.130Z,24.30
2018-12-17T07:19:04.215Z,16.47
2018-12-17T07:21:33.546Z,25.20
2018-12-17T07:26:42.708Z,24.00
2018-12-17T07:29:11.431Z,20.72
2018-12-17T07:31:40.218Z,20.30
2018-12-17T07:34:08.980Z,16.97
2018-12-17T07:36:37.734Z,26.60
2018-12-17T07:39:08.185Z,22.20
2018-12-17T07:41:37.458Z,19.83
2018-12-17T07:44:06.150Z,28.17
2018-12-17T07:46:35.095Z,20.60
2018-12-17T07:49:04.182Z,26.12
2018-12-17T07:51:32.977Z,25.03
2018-12-17T07:54:02.168Z,26.33
2018-12-17T07:56:31.810Z,22.17
2018-12-17T07:59:00.765Z,23.43
2018-12-17T08:01:29.722Z,26.50
2018-12-17T08:03:58.456Z,23.80
2018-12-17T08:06:27.177Z,24.60
2018-12-17T08:08:55.936Z,25.80
2018-12-17T08:11:24.701Z,23.43
2018-12-17T08:13:54.194Z,25.75
2018-12-17T08:16:23.010Z,20.15
2018-12-17T08:18:51.966Z,25.37
2018-12-17T08:21:20.870Z,26.85
2018-12-17T08:23:49.643Z,29.70
2018-12-17T08:26:18.355Z,21.37
2018-12-17T08:28:47.447Z,26.42
2018-12-17T08:31:16.113Z,24.00
2018-12-17T08:33:44.930Z,24.67
2018-12-17T08:36:13.742Z,25.63
2018-12-17T08:38:42.707Z,24.23
2018-12-17T08:41:11.498Z,26.87
2018-12-17T08:43:40.298Z,19.67
2018-12-17T08:46:09.054Z,23.87
2018-12-17T08:48:37.912Z,27.93
2018-12-17T08:51:06.741Z,31.33
2018-12-17T08:53:36.630Z,28.27
2018-12-17T08:58:48.801Z,23.23
2018-12-17T09:01:17.662Z,24.90
2018-12-17T09:03:46.431Z,20.47
2018-12-17T09:06:15.155Z,22.40
2018-12-17T09:08:43.963Z,21.42
2018-12-17T09:11:12.883Z,16.33
2018-12-17T09:13:41.735Z,26.23
2018-12-17T09:16:10.480Z,22.23
2018-12-17T09:18:39.185Z,20.07
2018-12-17T09:21:07.939Z,15.87
2018-12-17T09:23:36.761Z,23.10
2018-12-17T09:26:05.475Z,21.53
2018-12-17T09:28:34.150Z,22.20
2018-12-17T09:31:03.685Z,20.85
2018-12-17T09:33:32.453Z,15.47
2018-12-17T09:36:02.027Z,20.27
2018-12-17T09:38:30.773Z,19.87
2018-12-17T09:40:59.545Z,25.77
2018-12-17T09:43:28.366Z,24.63
2018-12-17T09:45:57.113Z,24.77
2018-12-17T09:48:25.955Z,22.37
2018-12-17T09:50:54.742Z,17.73
2018-12-17T09:53:23.459Z,16.80
2018-12-17T09:55:52.248Z,22.85
2018-12-17T09:58:20.978Z,18.87
2018-12-17T10:00:49.930Z,17.00
2018-12-17T10:03:18.675Z,20.30
2018-12-17T10:05:47.426Z,18.10
2018-12-17T10:08:16.210Z,15.73
2018-12-17T10:10:44.904Z,19.97
2018-12-17T10:13:13.587Z,18.50
2018-12-17T10:15:42.406Z,15.83
2018-12-17T10:18:11.121Z,19.93
2018-12-17T10:20:39.909Z,16.03
2018-12-17T10:23:08.703Z,18.60
2018-12-17T10:25:37.405Z,16.55
2018-12-17T10:28:06.141Z,23.40
2018-12-17T10:30:34.850Z,17.75
2018-12-17T10:33:04.327Z,16.10
2018-12-17T10:35:33.062Z,12.90
2018-12-17T10:38:02.130Z,12.82
2018-12-17T10:40:32.806Z,12.87
2018-12-17T10:43:01.628Z,11.13
2018-12-17T10:45:30.313Z,11.47
2018-12-17T10:48:00.142Z,11.50
2018-12-17T10:50:30.253Z,12.60
2018-12-17T10:52:58.998Z,13.63
2018-12-17T10:55:27.730Z,10.10
2018-12-17T10:57:56.500Z,14.67
2018-12-17T11:00:30.604Z,11.07
2018-12-17T11:03:04.242Z,12.03
2018-12-17T11:05:33.974Z,13.13
2018-12-17T11:08:02.855Z,15.53
2018-12-17T11:10:31.726Z,8.37
2018-12-17T11:13:00.522Z,8.50
2018-12-17T11:15:29.830Z,7.63
2018-12-17T11:17:58.554Z,10.30
2018-12-17T11:20:27.446Z,12.33
2018-12-17T11:22:56.271Z,11.63
2018-12-17T11:25:25.014Z,13.90
2018-12-17T11:27:54.150Z,6.87
2018-12-17T11:30:23.218Z,9.40
2018-12-17T11:32:51.963Z,10.50
2018-12-17T11:35:20.698Z,10.13
2018-12-17T11:37:49.465Z,7.15
2018-12-17T11:40:18.184Z,12.23
2018-12-17T11:42:46.918Z,8.47
2018-12-17T11:45:15.882Z,11.47
2018-12-17T11:47:44.579Z,9.93
2018-12-17T11:50:13.332Z,12.20
2018-12-17T11:52:42.093Z,11.73
2018-12-17T11:55:10.854Z,7.67
2018-12-17T11:57:50.922Z,8.13
2018-12-17T12:00:22.619Z,13.03
2018-12-17T12:02:51.382Z,10.07
2018-12-17T12:05:20.092Z,10.33
2018-12-17T12:07:49.090Z,8.70
2018-12-17T12:10:17.774Z,9.00
2018-12-17T12:12:46.505Z,8.40
2018-12-17T12:15:15.269Z,12.40
2018-12-17T12:17:44.367Z,8.33
2018-12-17T12:20:13.082Z,8.03
2018-12-17T12:22:42.706Z,8.13
2018-12-17T12:25:11.552Z,9.08
2018-12-17T12:27:40.449Z,8.70
2018-12-17T12:30:09.808Z,10.73
2018-12-17T12:32:38.603Z,9.48
2018-12-17T12:35:08.529Z,7.20
2018-12-17T12:37:37.942Z,11.15
2018-12-17T12:40:07.322Z,7.17
2018-12-17T12:42:36.077Z,14.60
2018-12-17T12:45:05.403Z,9.03
2018-12-17T12:47:34.079Z,9.88
2018-12-17T12:50:04.000Z,7.63
2018-12-17T12:52:35.236Z,8.63
2018-12-17T12:55:07.159Z,6.10
2018-12-17T12:57:36.039Z,7.50
2018-12-17T13:00:09.501Z,7.17
2018-12-17T13:02:39.802Z,8.83
2018-12-17T13:05:08.610Z,9.30
2018-12-17T13:07:37.415Z,6.97
2018-12-17T13:10:09.612Z,7.77
2018-12-17T13:12:38.340Z,9.00
2018-12-17T13:15:08.901Z,6.93
2018-12-17T13:17:37.836Z,10.40
2018-12-17T13:20:08.117Z,10.25
2018-12-17T13:22:37.986Z,5.70
2018-12-17T13:25:10.933Z,6.97
2018-12-17T13:27:39.613Z,7.60
2018-12-17T13:30:09.729Z,7.40
2018-12-17T13:32:38.598Z,5.87
2018-12-17T13:35:08.681Z,8.08
2018-12-17T13:37:37.462Z,5.92
2018-12-17T13:42:49.815Z,5.00
2018-12-17T13:45:18.638Z,4.63
2018-12-17T13:47:47.360Z,7.93
2018-12-17T13:50:21.473Z,6.55
2018-12-17T13:52:50.182Z,5.45
2018-12-17T13:55:18.943Z,5.60
2018-12-17T13:57:47.741Z,5.92
2018-12-17T14:00:16.434Z,10.50
2018-12-17T14:02:45.121Z,5.58
2018-12-17T14:05:14.225Z,6.17
2018-12-17T14:07:42.991Z,6.63
2018-12-17T14:10:17.272Z,4.67
2018-12-17T14:12:46.159Z,5.73
2018-12-17T14:15:14.954Z,5.60
2018-12-17T14:17:47.558Z,12.03
2018-12-17T14:22:29.779Z,8.60
2018-12-17T14:24:59.094Z,14.07
2018-12-17T14:27:27.827Z,10.67
2018-12-17T14:29:56.760Z,8.00
2018-12-17T14:32:26.029Z,8.10
2018-12-17T14:34:54.734Z,8.30
2018-12-17T14:37:23.603Z,7.25
2018-12-17T14:39:52.274Z,7.10
2018-12-17T14:42:20.976Z,5.05
2018-12-17T14:44:49.777Z,6.00
2018-12-17T14:47:18.510Z,6.55
2018-12-17T14:49:47.462Z,5.87
2018-12-17T14:52:17.387Z,5.78
2018-12-17T14:54:46.392Z,6.90
2018-12-17T14:57:15.485Z,9.97
2018-12-17T14:59:45.208Z,9.30
2018-12-17T15:02:14.012Z,7.03
2018-12-17T15:04:43.646Z,12.93
2018-12-17T15:07:13.434Z,8.86
2018-12-17T15:09:42.225Z,12.10
2018-12-17T15:12:11.111Z,10.50
2018-12-17T15:14:39.887Z,10.57
2018-12-17T15:17:08.599Z,11.50
2018-12-17T15:19:37.910Z,10.70
2018-12-17T15:22:06.641Z,8.40
2018-12-17T15:24:40.364Z,11.70
2018-12-17T15:27:06.241Z,9.50
2018-12-17T15:29:35.019Z,13.37
2018-12-17T15:32:04.395Z,7.03
2018-12-17T15:34:33.163Z,10.53
2018-12-17T15:37:03.550Z,13.83
2018-12-17T15:39:32.522Z,10.83
2018-12-17T15:42:02.221Z,11.47
2018-12-17T15:44:30.990Z,10.47
2018-12-17T15:46:59.905Z,10.35
2018-12-17T15:49:28.694Z,9.15
2018-12-17T15:51:57.454Z,12.03
2018-12-17T15:54:26.231Z,10.77
2018-12-17T15:56:56.005Z,9.97
2018-12-17T15:59:26.047Z,11.63
2018-12-17T16:01:54.910Z,9.45
2018-12-17T16:04:23.652Z,9.93
2018-12-17T16:06:52.365Z,16.00
2018-12-17T16:09:21.135Z,11.70
2018-12-17T16:11:49.972Z,8.05
2018-12-17T16:14:19.386Z,9.73
2018-12-17T16:16:48.134Z,10.60
2018-12-17T16:19:16.949Z,8.97
2018-12-17T16:21:45.808Z,11.40
2018-12-17T16:24:14.578Z,11.70
2018-12-17T16:26:43.338Z,10.60
2018-12-17T16:29:12.050Z,9.10
2018-12-17T16:31:40.818Z,9.87
2018-12-17T16:34:09.563Z,9.60
2018-12-17T16:36:38.810Z,7.60
2018-12-17T16:39:07.897Z,9.73
2018-12-17T16:41:38.698Z,11.93
2018-12-17T16:44:22.213Z,10.15
2018-12-17T16:49:30.966Z,20.70
2018-12-17T16:51:59.821Z,7.97
2018-12-17T16:54:28.591Z,12.80
2018-12-17T16:56:57.378Z,10.33
2018-12-17T16:59:26.282Z,9.90
2018-12-17T17:01:55.141Z,10.73
2018-12-17T17:04:24.920Z,14.52
2018-12-17T17:06:53.797Z,10.00
2018-12-17T17:09:22.563Z,9.80
2018-12-17T17:11:51.358Z,11.07
2018-12-17T17:14:20.126Z,14.53
2018-12-17T17:16:48.981Z,13.15
2018-12-17T17:19:17.665Z,10.08
2018-12-17T17:21:46.445Z,9.43
2018-12-17T17:24:15.152Z,11.27
2018-12-17T17:26:43.955Z,7.80
2018-12-17T17:29:12.705Z,7.78
2018-12-17T17:31:41.474Z,10.35
2018-12-17T17:34:10.241Z,11.80
2018-12-17T17:36:39.054Z,10.93
2018-12-17T17:39:08.440Z,14.53
2018-12-17T17:41:37.305Z,16.97
2018-12-17T17:44:06.166Z,12.30
2018-12-17T17:46:34.875Z,14.43
2018-12-17T17:49:03.898Z,13.00
2018-12-17T17:51:33.008Z,10.75
2018-12-17T17:54:02.546Z,10.80
2018-12-17T17:56:31.507Z,8.70
2018-12-17T17:59:00.194Z,13.40
2018-12-17T18:01:29.453Z,22.83
2018-12-17T18:03:58.431Z,13.93
2018-12-17T18:06:27.258Z,10.47
2018-12-17T18:08:55.937Z,13.97
2018-12-17T18:11:24.702Z,11.50
2018-12-17T18:13:53.506Z,12.82
2018-12-17T18:16:22.210Z,13.93
2018-12-17T18:18:50.969Z,10.27
2018-12-17T18:21:19.757Z,20.17
2018-12-17T18:23:48.481Z,11.43
2018-12-17T18:26:17.308Z,14.30
2018-12-17T18:28:46.082Z,14.50
2018-12-17T18:31:14.883Z,13.30
2018-12-17T18:33:43.725Z,13.98
2018-12-17T18:36:12.538Z,11.33
2018-12-17T18:38:41.266Z,16.43
2018-12-17T18:41:09.999Z,13.70
2018-12-17T18:43:38.786Z,16.65
2018-12-17T18:46:07.631Z,16.40
2018-12-17T18:48:36.402Z,17.77
2018-12-17T18:51:05.257Z,16.47
2018-12-17T18:53:34.042Z,18.07
2018-12-17T18:56:02.839Z,19.40
2018-12-17T18:58:31.546Z,15.00
2018-12-17T19:01:00.390Z,15.87
2018-12-17T19:03:30.514Z,14.40
2018-12-17T19:05:59.346Z,18.87
2018-12-17T19:13:28.402Z,15.07
2018-12-17T19:15:57.222Z,23.43
2018-12-17T19:18:26.393Z,19.12
2018-12-17T19:20:55.223Z,21.97
2018-12-17T19:23:23.976Z,25.17
2018-12-17T19:25:52.828Z,20.37
2018-12-17T19:28:21.596Z,22.77
2018-12-17T19:30:50.355Z,18.40
2018-12-17T19:33:19.188Z,20.53
2018-12-17T19:35:48.019Z,17.85
2018-12-17T19:38:16.840Z,17.37
2018-12-17T19:40:45.654Z,24.27
2018-12-17T19:43:14.370Z,19.52
2018-12-17T19:45:49.503Z,20.50
2018-12-17T19:48:18.226Z,16.35
2018-12-17T19:50:47.038Z,22.73
2018-12-17T19:53:15.795Z,24.30
2018-12-17T19:55:44.664Z,21.23
2018-12-17T19:58:13.431Z,25.97
2018-12-17T20:00:42.539Z,20.13
2018-12-17T20:03:11.774Z,19.03
2018-12-17T20:05:41.473Z,15.90
2018-12-17T20:08:10.856Z,22.90
2018-12-17T20:10:39.644Z,22.60
2018-12-17T20:13:10.314Z,20.10
2018-12-17T20:15:39.348Z,19.48
2018-12-17T20:18:08.270Z,21.70
2018-12-17T20:20:37.170Z,23.45
2018-12-17T20:23:05.965Z,23.95
2018-12-17T20:25:34.715Z,23.12
2018-12-17T20:28:04.683Z,19.87
2018-12-17T20:30:34.362Z,22.90
2018-12-17T20:33:04.543Z,22.15
2018-12-17T20:35:33.585Z,19.60
2018-12-17T20:38:04.069Z,25.47
2018-12-17T20:40:32.778Z,21.70
2018-12-17T20:43:02.031Z,17.57
2018-12-17T20:45:31.696Z,22.70
2018-12-17T20:48:01.124Z,22.63
2018-12-17T20:50:30.490Z,24.00
2018-12-17T20:53:00.475Z,25.30
2018-12-17T20:55:31.252Z,18.70
2018-12-17T20:58:00.164Z,19.85
2018-12-17T21:00:29.194Z,24.50
2018-12-17T21:03:00.506Z,20.27
2018-12-17T21:05:29.280Z,23.02
2018-12-17T21:07:58.073Z,25.00
2018-12-17T21:10:26.819Z,26.62
2018-12-17T21:12:55.541Z,25.97
2018-12-17T21:15:24.350Z,23.40
2018-12-17T21:17:53.850Z,28.40
2018-12-17T21:20:23.212Z,23.33
2018-12-17T21:22:52.274Z,24.00
2018-12-17T21:25:21.062Z,23.67
2018-12-17T21:27:50.204Z,21.70
2018-12-17T21:30:18.894Z,26.87
2018-12-17T21:32:47.927Z,30.27
2018-12-17T21:35:17.049Z,22.10
2018-12-17T21:37:45.810Z,22.62
2018-12-17T21:40:14.598Z,26.25
2018-12-17T21:42:43.387Z,23.30
2018-12-17T21:45:12.274Z,24.13
2018-12-17T21:47:41.039Z,21.67
2018-12-17T21:50:09.846Z,24.85
2018-12-17T21:52:38.640Z,21.40
2018-12-17T21:55:07.504Z,23.70
2018-12-17T21:57:36.336Z,22.90
2018-12-17T22:00:06.214Z,23.93
2018-12-17T22:02:36.919Z,25.37
2018-12-17T22:05:06.126Z,28.23
2018-12-17T22:07:36.163Z,24.12
2018-12-17T22:10:05.386Z,22.23
2018-12-17T22:12:34.224Z,24.10
2018-12-17T22:15:03.874Z,25.82
2018-12-17T22:17:32.950Z,25.73
2018-12-17T22:20:01.677Z,24.70
2018-12-17T22:22:31.035Z,27.37
2018-12-17T22:25:00.031Z,28.03
2018-12-17T22:27:28.958Z,28.00
2018-12-17T22:29:57.761Z,29.30
2018-12-17T22:32:26.534Z,34.30
2018-12-17T22:34:55.546Z,32.70
2018-12-17T22:37:24.266Z,32.77
2018-12-17T22:39:55.172Z,30.57
2018-12-17T22:42:24.803Z,29.03
2018-12-17T22:44:53.583Z,24.30
2018-12-17T22:47:22.262Z,26.37
2018-12-17T22:49:51.682Z,33.80
2018-12-17T22:52:20.755Z,28.43
2018-12-17T22:54:49.705Z,28.37
2018-12-17T22:57:18.671Z,25.63
2018-12-17T22:59:47.413Z,31.80
2018-12-17T23:02:16.247Z,27.17
2018-12-17T23:04:46.946Z,31.10
2018-12-17T23:07:15.971Z,24.02
2018-12-17T23:09:57.192Z,23.40
2018-12-17T23:12:37.146Z,31.10
2018-12-17T23:15:17.315Z,30.50
2018-12-17T23:17:45.146Z,25.87
2018-12-17T23:20:15.976Z,26.00
2018-12-17T23:22:46.804Z,27.87
2018-12-17T23:25:17.509Z,24.80
2018-12-17T23:27:49.678Z,28.07
2018-12-17T23:30:18.557Z,26.93
2018-12-17T23:32:47.386Z,28.42
2018-12-17T23:35:16.165Z,24.17
2018-12-17T23:37:44.943Z,30.47
2018-12-17T23:40:13.719Z,34.92
2018-12-17T23:42:42.431Z,27.60
2018-12-17T23:45:11.270Z,26.47
2018-12-17T23:47:40.010Z,32.17
2018-12-17T23:50:09.752Z,29.30
2018-12-17T23:52:38.498Z,28.50
2018-12-17T23:55:08.145Z,28.17
2018-12-17T23:57:36.949Z,32.70
